createdAt,value
2019-03-03T00:03:22.551Z,27.62
2019-03-03T00:07:27.310Z,24.45
2019-03-03T00:11:31.835Z,25.80
2019-03-03T00:15:37.568Z,24.52
2019-03-03T00:19:42.382Z,24.20
2019-03-03T00:23:47.168Z,24.92
2019-03-03T00:27:51.918Z,24.70
2019-03-03T00:31:56.369Z,25.05
2019-03-03T00:36:00.819Z,24.47
2019-03-03T00:40:28.877Z,24.32
2019-03-03T00:45:07.840Z,26.82
2019-03-03T00:49:34.271Z,25.82
2019-03-03T00:53:58.046Z,26.42
2019-03-03T00:58:27.679Z,25.40
2019-03-03T01:02:46.032Z,26.23
2019-03-03T01:07:15.860Z,25.75
2019-03-03T01:11:33.180Z,24.60
2019-03-03T01:15:56.727Z,26.87
2019-03-03T01:20:22.395Z,26.80
2019-03-03T01:24:39.089Z,28.15
2019-03-03T01:28:44.172Z,28.15
2019-03-03T01:32:48.586Z,29.30
2019-03-03T01:36:53.034Z,31.02
2019-03-03T01:40:57.514Z,31.42
2019-03-03T01:45:01.944Z,32.45
2019-03-03T01:49:06.509Z,32.35
2019-03-03T01:53:11.002Z,32.42
2019-03-03T01:57:15.734Z,33.23
2019-03-03T02:01:20.434Z,35.60
2019-03-03T02:05:26.552Z,34.43
2019-03-03T02:09:31.318Z,35.03
2019-03-03T02:13:35.988Z,33.35
2019-03-03T02:17:40.444Z,34.20
2019-03-03T02:21:45.196Z,34.65
2019-03-03T02:25:49.870Z,35.83
2019-03-03T02:29:54.568Z,35.00
2019-03-03T02:33:59.415Z,33.78
2019-03-03T02:38:03.805Z,36.70
2019-03-03T02:42:08.211Z,38.40
2019-03-03T02:46:12.933Z,34.70
2019-03-03T02:50:17.365Z,37.40
2019-03-03T02:54:22.112Z,39.80
2019-03-03T02:58:28.455Z,41.02
2019-03-03T03:02:44.907Z,41.77
2019-03-03T03:06:55.564Z,44.73
2019-03-03T03:11:07.765Z,45.25
2019-03-03T03:15:20.316Z,47.65
2019-03-03T03:19:44.994Z,48.50
2019-03-03T03:24:14.953Z,51.55
2019-03-03T03:28:29.768Z,47.15
2019-03-03T03:32:43.360Z,51.53
2019-03-03T03:37:13.433Z,53.00
2019-03-03T03:41:35.347Z,51.65
2019-03-03T03:46:04.245Z,53.05
2019-03-03T03:50:31.213Z,53.95
2019-03-03T03:55:12.884Z,53.75
2019-03-03T03:59:23.176Z,49.90
2019-03-03T04:03:45.296Z,52.67
2019-03-03T04:08:00.276Z,52.05
2019-03-03T04:12:29.931Z,52.00
2019-03-03T04:16:43.149Z,58.15
2019-03-03T04:20:55.778Z,54.08
2019-03-03T04:25:17.945Z,45.78
2019-03-03T04:29:41.478Z,47.75
2019-03-03T04:34:04.468Z,31.62
2019-03-03T04:38:21.471Z,37.65
2019-03-03T04:42:36.200Z,46.50
2019-03-03T04:46:45.862Z,46.35
2019-03-03T04:51:09.361Z,41.30
2019-03-03T04:55:31.775Z,41.42
2019-03-03T05:00:05.320Z,41.68
2019-03-03T05:04:22.366Z,40.98
2019-03-03T05:08:36.048Z,38.40
2019-03-03T05:13:05.757Z,25.25
2019-03-03T05:17:33.374Z,31.37
2019-03-03T05:21:38.306Z,29.55
2019-03-03T05:25:42.767Z,29.65
2019-03-03T05:29:47.158Z,25.97
2019-03-03T05:33:51.580Z,27.32
2019-03-03T05:37:56.471Z,26.42
2019-03-03T05:42:01.236Z,24.98
2019-03-03T05:46:05.980Z,23.32
2019-03-03T05:50:10.412Z,23.92
2019-03-03T05:54:14.893Z,25.40
2019-03-03T05:58:19.615Z,22.90
2019-03-03T06:02:24.419Z,21.35
2019-03-03T06:06:28.830Z,21.15
2019-03-03T06:10:33.218Z,19.85
2019-03-03T06:14:37.636Z,20.57
2019-03-03T06:18:42.067Z,18.27
2019-03-03T06:22:46.477Z,16.75
2019-03-03T06:26:50.901Z,14.68
2019-03-03T06:30:55.959Z,16.35
2019-03-03T06:35:00.428Z,14.47
2019-03-03T06:39:06.200Z,13.58
2019-03-03T06:43:10.987Z,12.80
2019-03-03T06:47:15.628Z,11.20
2019-03-03T06:51:20.055Z,11.43
2019-03-03T06:55:24.811Z,11.35
2019-03-03T06:59:29.269Z,10.58
2019-03-03T07:03:33.819Z,10.60
2019-03-03T07:07:38.264Z,10.03
2019-03-03T07:11:42.708Z,9.15
2019-03-03T07:15:47.789Z,8.80
2019-03-03T07:19:53.344Z,8.55
2019-03-03T07:23:58.437Z,8.80
2019-03-03T07:28:02.936Z,7.67
2019-03-03T07:32:07.963Z,8.03
2019-03-03T07:36:12.397Z,6.78
2019-03-03T07:40:16.844Z,6.83
2019-03-03T07:44:21.573Z,7.03
2019-03-03T07:48:26.063Z,6.62
2019-03-03T07:52:30.511Z,6.72
2019-03-03T07:56:34.934Z,6.10
2019-03-03T08:00:40.634Z,6.47
2019-03-03T08:04:45.818Z,6.12
2019-03-03T08:08:50.880Z,6.08
2019-03-03T08:12:56.247Z,6.25
2019-03-03T08:17:01.242Z,5.65
2019-03-03T08:21:06.008Z,5.70
2019-03-03T08:25:10.829Z,6.20
2019-03-03T08:29:15.252Z,5.37
2019-03-03T08:33:19.768Z,5.60
2019-03-03T08:37:24.963Z,5.78
2019-03-03T08:41:29.671Z,5.90
2019-03-03T08:45:52.115Z,5.80
2019-03-03T08:50:16.839Z,5.65
2019-03-03T08:54:28.421Z,5.50
2019-03-03T08:58:39.583Z,5.37
2019-03-03T09:03:06.760Z,5.85
2019-03-03T09:07:30.684Z,6.15
2019-03-03T09:11:51.384Z,5.97
2019-03-03T09:16:11.808Z,6.22
2019-03-03T09:20:22.052Z,6.47
2019-03-03T09:24:45.873Z,6.30
2019-03-03T09:28:57.765Z,6.62
2019-03-03T09:33:30.986Z,5.90
2019-03-03T09:37:48.491Z,6.50
2019-03-03T09:42:01.024Z,6.22
2019-03-03T09:46:22.333Z,6.05
2019-03-03T09:50:37.836Z,5.12
2019-03-03T09:54:50.248Z,5.40
2019-03-03T09:59:12.724Z,5.70
2019-03-03T10:03:25.356Z,5.60
2019-03-03T10:07:47.557Z,5.25
2019-03-03T10:12:09.831Z,4.87
2019-03-03T10:16:33.534Z,5.30
2019-03-03T10:20:53.537Z,5.17
2019-03-03T10:25:16.138Z,5.50
2019-03-03T10:29:39.735Z,5.53
2019-03-03T10:33:53.923Z,5.00
2019-03-03T10:38:24.966Z,5.03
2019-03-03T10:42:55.273Z,5.45
2019-03-03T10:47:10.454Z,5.40
2019-03-03T10:51:45.344Z,4.95
2019-03-03T10:56:22.870Z,5.28
2019-03-03T11:00:41.268Z,5.83
2019-03-03T11:05:09.829Z,4.67
2019-03-03T11:09:50.245Z,5.42
2019-03-03T11:14:18.932Z,4.92
2019-03-03T11:18:36.584Z,5.58
2019-03-03T11:23:00.530Z,4.50
2019-03-03T11:27:22.432Z,4.80
2019-03-03T11:31:45.323Z,4.35
2019-03-03T11:35:58.639Z,4.35
2019-03-03T11:40:17.540Z,4.78
2019-03-03T11:44:40.333Z,4.33
2019-03-03T11:48:54.066Z,4.62
2019-03-03T11:53:10.353Z,4.55
2019-03-03T11:57:30.475Z,4.67
2019-03-03T12:01:52.811Z,4.30
2019-03-03T12:06:10.944Z,4.50
2019-03-03T12:10:43.570Z,5.03
2019-03-03T12:15:10.512Z,4.33
2019-03-03T12:19:28.261Z,4.75
2019-03-03T12:23:46.984Z,5.45
2019-03-03T12:28:19.311Z,5.75
2019-03-03T12:32:33.016Z,5.75
2019-03-03T12:36:43.700Z,6.80
2019-03-03T12:40:59.077Z,5.92
2019-03-03T12:45:19.860Z,6.17
2019-03-03T12:49:34.075Z,5.72
2019-03-03T12:53:56.634Z,5.90
2019-03-03T12:58:11.283Z,6.10
2019-03-03T13:02:34.095Z,6.75
2019-03-03T13:06:56.670Z,6.20
2019-03-03T13:11:20.099Z,6.58
2019-03-03T13:15:43.387Z,6.10
2019-03-03T13:20:03.478Z,5.87
2019-03-03T13:24:15.527Z,6.30
2019-03-03T13:28:28.020Z,6.92
2019-03-03T13:32:51.926Z,5.75
2019-03-03T13:37:14.785Z,6.87
2019-03-03T13:41:45.799Z,6.22
2019-03-03T13:45:50.700Z,5.50
2019-03-03T13:49:56.021Z,5.97
2019-03-03T13:54:00.610Z,5.55
2019-03-03T13:58:05.504Z,5.75
2019-03-03T14:02:10.351Z,5.60
2019-03-03T14:06:15.164Z,5.20
2019-03-03T14:10:19.627Z,5.30
2019-03-03T14:14:24.106Z,4.75
2019-03-03T14:18:29.307Z,5.05
2019-03-03T14:22:33.815Z,10.55
2019-03-03T14:26:38.967Z,4.80
2019-03-03T14:30:43.960Z,4.60
2019-03-03T14:34:49.773Z,4.80
2019-03-03T14:38:54.400Z,6.35
2019-03-03T14:42:58.987Z,4.55
2019-03-03T14:47:03.838Z,4.87
2019-03-03T14:51:08.798Z,4.72
2019-03-03T14:55:14.877Z,5.90
2019-03-03T14:59:19.761Z,5.33
2019-03-03T15:03:24.483Z,5.25
2019-03-03T15:07:29.257Z,5.47
2019-03-03T15:11:34.118Z,6.05
2019-03-03T15:15:39.610Z,6.55
2019-03-03T15:19:44.113Z,7.30
2019-03-03T15:23:48.920Z,9.10
2019-03-03T15:27:55.263Z,7.50
2019-03-03T15:31:59.664Z,7.97
2019-03-03T15:36:04.091Z,8.90
2019-03-03T15:40:09.740Z,9.70
2019-03-03T15:44:14.425Z,7.85
2019-03-03T15:48:19.134Z,8.90
2019-03-03T15:52:23.628Z,8.68
2019-03-03T15:56:28.697Z,8.25
2019-03-03T16:00:33.311Z,13.68
2019-03-03T16:04:38.393Z,10.65
2019-03-03T16:08:45.073Z,10.08
2019-03-03T16:12:50.085Z,11.00
2019-03-03T16:16:54.890Z,10.93
2019-03-03T16:20:59.349Z,11.03
2019-03-03T16:25:04.165Z,9.75
2019-03-03T16:29:08.806Z,10.23
2019-03-03T16:33:20.417Z,12.37
2019-03-03T16:37:21.245Z,13.72
2019-03-03T16:41:26.081Z,13.88
2019-03-03T16:45:31.552Z,12.35
2019-03-03T16:49:36.249Z,14.70
2019-03-03T16:53:40.691Z,14.07
2019-03-03T16:57:45.082Z,13.80
2019-03-03T17:01:50.048Z,13.18
2019-03-03T17:05:54.549Z,14.58
2019-03-03T17:10:00.234Z,13.53
2019-03-03T17:14:05.066Z,14.50
2019-03-03T17:18:09.692Z,13.00
2019-03-03T17:22:14.457Z,13.68
2019-03-03T17:26:18.996Z,11.95
2019-03-03T17:30:25.770Z,11.10
2019-03-03T17:34:30.157Z,10.63
2019-03-03T17:38:35.654Z,11.50
2019-03-03T17:42:40.783Z,14.53
2019-03-03T17:46:45.499Z,13.30
2019-03-03T17:50:50.401Z,10.85
2019-03-03T17:54:55.136Z,13.00
2019-03-03T17:58:59.851Z,11.70
2019-03-03T18:03:04.292Z,11.38
2019-03-03T18:07:11.035Z,10.43
2019-03-03T18:11:16.421Z,10.25
2019-03-03T18:15:21.503Z,10.08
2019-03-03T18:19:26.816Z,8.43
2019-03-03T18:23:31.486Z,8.48
2019-03-03T18:27:36.341Z,9.28
2019-03-03T18:31:40.825Z,8.13
2019-03-03T18:35:45.772Z,8.53
2019-03-03T18:39:51.145Z,8.05
2019-03-03T18:43:55.561Z,7.90
2019-03-03T18:48:00.328Z,7.95
2019-03-03T18:52:05.024Z,8.28
2019-03-03T18:56:09.777Z,8.08
2019-03-03T19:00:16.020Z,8.58
2019-03-03T19:04:20.982Z,8.85
2019-03-03T19:08:25.862Z,8.53
2019-03-03T19:12:30.614Z,7.28
2019-03-03T19:16:35.394Z,7.60
2019-03-03T19:20:39.989Z,7.37
2019-03-03T19:24:45.051Z,7.70
2019-03-03T19:28:49.538Z,6.97
2019-03-03T19:33:01.476Z,7.17
2019-03-03T19:37:06.523Z,7.03
2019-03-03T19:41:11.202Z,6.72
2019-03-03T19:45:18.976Z,6.65
2019-03-03T19:49:23.877Z,6.92
2019-03-03T19:53:28.609Z,6.75
2019-03-03T19:57:33.046Z,6.97
2019-03-03T20:01:37.918Z,6.47
2019-03-03T20:05:42.326Z,5.72
2019-03-03T20:09:47.531Z,6.12
2019-03-03T20:13:54.161Z,5.87
2019-03-03T20:17:59.223Z,6.55
2019-03-03T20:22:03.725Z,5.72
2019-03-03T20:26:08.447Z,6.12
2019-03-03T20:30:16.532Z,6.72
2019-03-03T20:34:21.783Z,6.03
2019-03-03T20:38:26.168Z,6.87
2019-03-03T20:42:30.985Z,7.03
2019-03-03T20:46:35.490Z,6.40
2019-03-03T20:50:40.113Z,6.75
2019-03-03T20:54:44.915Z,6.12
2019-03-03T20:58:49.439Z,6.65
2019-03-03T21:02:53.978Z,5.62
2019-03-03T21:06:58.732Z,5.78
2019-03-03T21:11:04.118Z,5.70
2019-03-03T21:15:09.824Z,6.10
2019-03-03T21:19:15.078Z,5.33
2019-03-03T21:23:19.665Z,6.03
2019-03-03T21:27:24.391Z,5.70
2019-03-03T21:31:28.819Z,6.05
2019-03-03T21:35:33.644Z,5.47
2019-03-03T21:39:38.498Z,5.90
2019-03-03T21:43:43.225Z,5.92
2019-03-03T21:47:48.358Z,5.40
2019-03-03T21:51:53.847Z,5.20
2019-03-03T21:55:59.906Z,5.53
2019-03-03T22:00:05.960Z,5.00
2019-03-03T22:04:11.699Z,5.55
2019-03-03T22:08:16.223Z,5.42
2019-03-03T22:12:20.649Z,5.58
2019-03-03T22:16:25.097Z,5.45
2019-03-03T22:20:30.095Z,5.47
2019-03-03T22:24:35.964Z,5.42
2019-03-03T22:28:40.574Z,5.90
2019-03-03T22:32:45.279Z,5.05
2019-03-03T22:36:54.336Z,5.55
2019-03-03T22:40:59.719Z,5.95
2019-03-03T22:45:04.597Z,5.97
2019-03-03T22:49:09.169Z,6.42
2019-03-03T22:53:14.272Z,6.97
2019-03-03T22:57:18.698Z,6.53
2019-03-03T23:01:30.332Z,6.33
2019-03-03T23:06:05.386Z,7.40
2019-03-03T23:10:47.599Z,6.05
2019-03-03T23:14:59.677Z,5.55
2019-03-03T23:19:44.822Z,5.40
2019-03-03T23:24:12.847Z,5.47
2019-03-03T23:28:18.085Z,5.40
2019-03-03T23:32:22.608Z,5.30
2019-03-03T23:36:27.156Z,5.55
2019-03-03T23:40:31.907Z,5.60
2019-03-03T23:44:36.432Z,4.83
2019-03-03T23:48:40.847Z,5.30
2019-03-03T23:52:45.628Z,4.75
2019-03-03T23:56:50.273Z,4.97
